Time;durP1;ratioP1;P1;durP2;ratioP2;P2;SDS_P1;SDS_P2;PMS_P1;PMS_P2;Temp;Humidity;BMP_temperature;BMP_pressure;BME280_temperature;BME280_humidity;BME280_pressure;Samples;Min_cycle;Max_cycle;Signal;HPM_P1;HPM_P2
2022/03/21 00:00:38;;;;;;;41.25;26.25;;;154.40;1433.60;;;;;;5012383;28;20112;-65
2022/03/21 00:03:06;;;;;;;43.22;27.50;;;179.20;1408.00;;;;;;5012406;28;20121;-67
2022/03/21 00:05:32;;;;;;;50.50;29.65;;;;;;;;;;5012148;28;20026;-67
2022/03/21 00:07:58;;;;;;;51.95;31.27;;;154.40;1433.60;;;;;;5012442;28;20038;-67
2022/03/21 00:10:24;;;;;;;43.75;28.73;;;179.20;1408.00;;;;;;5012102;28;20040;-65
2022/03/21 00:12:51;;;;;;;37.13;24.38;;;154.50;1408.00;;;;;;5012475;28;20076;-66
2022/03/21 00:15:19;;;;;;;35.55;21.10;;;154.40;1408.00;;;;;;5011867;28;20044;-70
2022/03/21 00:17:44;;;;;;;33.83;21.40;;;154.10;1433.60;;;;;;5011524;28;20120;-66
2022/03/21 00:20:15;;;;;;;45.13;25.15;;;;;;;;;;5033395;28;20036;-67
2022/03/21 00:22:42;;;;;;;38.95;25.25;;;;;;;;;;5074108;28;20070;-67
2022/03/21 00:25:09;;;;;;;42.70;26.20;;;153.70;1459.20;;;;;;5072672;28;20195;-66
2022/03/21 00:27:38;;;;;;;44.08;26.80;;;128.90;2252.80;;;;;;5073935;28;20440;-67
2022/03/21 00:30:09;;;;;;;32.38;22.30;;;128.80;1510.40;;;;;;5074248;28;20048;-67
2022/03/21 00:32:36;;;;;;;45.30;25.63;;;;;;;;;;5073263;28;20040;-67
2022/03/21 00:35:02;;;;;;;35.50;24.50;;;;;;;;;;5055674;28;20747;-67
2022/03/21 00:37:29;;;;;;;30.77;20.10;;;;;;;;;;5073696;28;20044;-69
2022/03/21 00:39:55;;;;;;;33.92;20.33;;;;;;;;;;5073240;28;20423;-67
2022/03/21 00:42:22;;;;;;;30.65;20.63;;;;;;;;;;5073141;28;20012;-66
2022/03/21 00:44:48;;;;;;;34.70;21.63;;;;;;;;;;5073463;28;20024;-68
2022/03/21 00:47:16;;;;;;;32.72;20.23;;;;;;;;;;5073396;28;20467;-67
2022/03/21 00:49:44;;;;;;;33.63;21.75;;;128.30;1561.60;;;;;;5073739;28;20040;-66
2022/03/21 00:52:10;;;;;;;33.17;20.45;;;;;;;;;;5072827;28;20036;-67
2022/03/21 00:54:38;;;;;;;35.70;23.00;;;128.30;1536.00;;;;;;5072792;28;20025;-65
2022/03/21 00:57:04;;;;;;;28.10;19.65;;;128.30;1561.60;;;;;;5072844;28;20036;-65
2022/03/21 00:59:30;;;;;;;27.83;17.65;;;128.10;1561.60;;;;;;5073207;28;20031;-65
2022/03/21 01:01:56;;;;;;;28.63;18.70;;;128.10;1561.60;;;;;;5073133;28;20459;-67
2022/03/21 01:04:21;;;;;;;25.65;17.45;;;128.20;1561.60;;;;;;5073331;28;20025;-66
2022/03/21 01:06:47;;;;;;;28.80;19.90;;;128.60;1536.00;;;;;;5072567;28;20048;-67
2022/03/21 01:09:15;;;;;;;28.77;17.77;;;128.70;1536.00;;;;;;5073510;28;20025;-67
2022/03/21 01:11:43;;;;;;;30.98;18.92;;;;;;;;;;5055563;28;20398;-66
2022/03/21 01:14:09;;;;;;;28.42;19.70;;;;;;;;;;5073594;28;20074;-66
2022/03/21 01:16:35;;;;;;;29.00;20.25;;;128.40;1536.00;;;;;;5073417;28;20036;-67
2022/03/21 01:19:00;;;;;;;30.15;19.88;;;128.40;1536.00;;;;;;5073522;28;20028;-67
2022/03/21 01:21:26;;;;;;;31.10;20.63;;;128.30;1536.00;;;;;;5073881;28;20037;-67
2022/03/21 01:23:52;;;;;;;31.55;21.15;;;128.30;1561.60;;;;;;5073384;28;20029;-67
2022/03/21 01:26:18;;;;;;;30.75;19.77;;;;;;;;;;5073201;28;20075;-67
2022/03/21 01:28:44;;;;;;;29.77;18.77;;;;;;;;;;5073319;28;20025;-66
2022/03/21 01:31:10;;;;;;;30.05;19.98;;;;;;;;;;5073176;28;20119;-67
2022/03/21 01:33:37;;;;;;;29.55;19.92;;;;;;;;;;5073270;28;20028;-66
2022/03/21 01:36:04;;;;;;;32.28;21.00;;;;;;;;;;5073197;28;20027;-67
2022/03/21 01:38:29;;;;;;;31.98;22.38;;;103.10;1561.60;;;;;;5072998;28;20024;-66
2022/03/21 01:40:55;;;;;;;27.67;18.55;;;103.20;1561.60;;;;;;5073331;28;20027;-66
2022/03/21 01:43:21;;;;;;;30.70;18.52;;;;;;;;;;5073145;28;20502;-66
2022/03/21 01:45:48;;;;;;;27.92;17.95;;;;;;;;;;5073283;28;20036;-66
2022/03/21 01:48:14;;;;;;;29.75;18.77;;;;;;;;;;5073391;28;20025;-65
2022/03/21 01:50:42;;;;;;;29.05;19.85;;;128.30;1561.60;;;;;;5072968;28;20090;-66
2022/03/21 01:55:56;;;;;;;35.17;22.50;;;;;;;;;;5073203;28;20194;-66
2022/03/21 01:58:22;;;;;;;35.85;23.70;;;;;;;;;;5072975;28;20420;-65
2022/03/21 02:00:48;;;;;;;41.35;23.60;;;;;;;;;;5072963;28;20021;-65
2022/03/21 02:03:14;;;;;;;33.40;22.02;;;;;;;;;;5072881;28;20028;-65
2022/03/21 02:05:40;;;;;;;37.75;23.77;;;;;;;;;;5072959;28;20028;-65
2022/03/21 02:08:06;;;;;;;42.80;25.65;;;128.40;1561.60;;;;;;5072671;28;20101;-66
2022/03/21 02:10:32;;;;;;;48.22;29.67;;;;;;;;;;5072684;28;20115;-65
2022/03/21 02:12:59;;;;;;;35.90;23.17;;;;;;;;;;5072766;28;20509;-65
2022/03/21 02:15:25;;;;;;;36.75;23.88;;;;;;;;;;5072894;28;20040;-65
2022/03/21 02:17:57;;;;;;;31.25;20.27;;;;;;;;;;5072741;28;20436;-65
2022/03/21 02:20:24;;;;;;;29.58;18.77;;;;;;;;;;5072817;28;20020;-65
2022/03/21 02:23:07;;;;;;;31.75;19.90;;;;;;;;;;5072573;28;20032;-65
2022/03/21 02:25:34;;;;;;;30.58;19.27;;;;;;;;;;5072586;28;20086;-66
2022/03/21 02:28:06;;;;;;;30.80;19.50;;;128.40;1561.60;;;;;;5072669;28;20037;-66
2022/03/21 02:30:35;;;;;;;31.70;19.65;;;;;;;;;;5072608;28;20020;-66
2022/03/21 02:33:01;;;;;;;31.65;19.67;;;;;;;;;;5072588;28;20029;-66
2022/03/21 02:35:28;;;;;;;32.97;22.30;;;;;;;;;;5072450;28;20024;-66
2022/03/21 02:37:56;;;;;;;33.97;22.23;;;;;;;;;;5072774;28;20021;-66
2022/03/21 02:40:22;;;;;;;31.55;20.70;;;;;;;;;;5072424;28;20551;-66
2022/03/21 02:42:49;;;;;;;30.70;21.20;;;;;;;;;;5072851;28;20095;-66
2022/03/21 02:45:15;;;;;;;35.38;22.20;;;;;;;;;;5072557;28;20470;-67
2022/03/21 02:47:41;;;;;;;31.25;21.05;;;;;;;;;;5074498;28;20120;-66
2022/03/21 02:50:09;;;;;;;28.02;18.83;;;;;;;;;;5076241;28;20024;-66
2022/03/21 02:52:35;;;;;;;28.60;18.90;;;;;;;;;;5076405;28;20060;-67
2022/03/21 02:55:01;;;;;;;29.05;20.45;;;;;;;;;;5076221;28;20078;-67
2022/03/21 02:57:31;;;;;;;32.10;20.15;;;;;;;;;;5076478;28;20025;-67
2022/03/21 02:59:57;;;;;;;33.08;21.30;;;;;;;;;;5076118;28;20048;-67
2022/03/21 03:02:23;;;;;;;34.35;21.15;;;;;;;;;;5076063;28;20067;-66
2022/03/21 03:04:49;;;;;;;37.28;23.58;;;;;;;;;;5075938;28;20108;-66
2022/03/21 03:07:15;;;;;;;35.72;21.63;;;;;;;;;;5076021;28;20036;-67
2022/03/21 03:09:41;;;;;;;31.50;20.02;;;;;;;;;;5076034;28;20016;-66
2022/03/21 03:12:08;;;;;;;30.58;19.05;;;;;;;;;;5058284;28;20035;-69
2022/03/21 03:14:35;;;;;;;31.67;19.48;;;;;;;;;;5075839;28;20458;-67
2022/03/21 03:17:01;;;;;;;29.48;19.00;;;;;;;;;;5075943;28;20025;-67
2022/03/21 03:19:27;;;;;;;29.30;19.02;;;;;;;;;;5075596;28;20024;-67
2022/03/21 03:21:53;;;;;;;27.70;18.05;;;;;;;;;;5075898;28;20514;-68
2022/03/21 03:24:20;;;;;;;31.10;19.77;;;;;;;;;;5075804;28;20081;-67
2022/03/21 03:26:46;;;;;;;31.35;17.92;;;;;;;;;;5075408;28;20471;-67
2022/03/21 03:29:13;;;;;;;25.27;16.00;;;;;;;;;;5075768;28;20021;-67
2022/03/21 03:31:39;;;;;;;23.20;15.07;;;;;;;;;;5075486;28;20360;-66
2022/03/21 03:34:05;;;;;;;26.08;17.80;;;;;;;;;;5075427;28;20016;-66
2022/03/21 03:36:31;;;;;;;25.45;16.45;;;;;;;;;;5075594;28;20021;-67
2022/03/21 03:38:57;;;;;;;24.70;16.30;;;;;;;;;;5075468;28;20027;-66
2022/03/21 03:41:24;;;;;;;23.73;16.17;;;;;;;;;;5075391;28;20025;-66
2022/03/21 03:43:50;;;;;;;26.02;15.85;;;;;;;;;;5075459;28;20059;-67
2022/03/21 03:46:17;;;;;;;26.02;16.55;;;;;;;;;;5075219;28;20483;-66
2022/03/21 03:48:43;;;;;;;23.23;15.88;;;;;;;;;;5075183;28;20033;-65
2022/03/21 03:51:10;;;;;;;24.02;16.70;;;102.90;1612.80;;;;;;5075183;28;20070;-67
2022/03/21 03:53:37;;;;;;;26.27;17.17;;;102.90;1817.60;;;;;;5075370;28;20086;-67
2022/03/21 03:56:03;;;;;;;24.17;15.45;;;103.00;1587.20;;;;;;5075274;28;20081;-67
2022/03/21 03:58:29;;;;;;;23.67;16.08;;;;;;;;;;5074985;28;20483;-67
2022/03/21 04:00:55;;;;;;;23.90;16.80;;;103.00;1587.20;;;;;;5075076;28;20082;-67
2022/03/21 04:06:05;;;;;;;28.50;18.10;;;102.80;1612.80;;;;;;5074836;28;20039;-67
2022/03/21 04:08:31;;;;;;;31.45;18.60;;;;;;;;;;5074832;28;20021;-66
2022/03/21 04:10:57;;;;;;;29.05;20.45;;;103.00;1612.80;;;;;;5075022;28;20463;-67
2022/03/21 04:13:23;;;;;;;33.55;19.80;;;103.30;1587.20;;;;;;5074968;28;20017;-67
2022/03/21 04:15:48;;;;;;;31.92;21.38;;;103.30;1587.20;;;;;;5075222;28;20032;-66
2022/03/21 04:18:15;;;;;;;31.90;22.98;;;;;;;;;;5056853;28;20036;-66
2022/03/21 04:20:41;;;;;;;30.83;21.98;;;;;;;;;;5074795;28;20028;-66
2022/03/21 04:23:09;;;;;;;32.75;21.90;;;;;;;;;;5074670;28;20017;-66
2022/03/21 04:25:35;;;;;;;37.60;22.02;;;128.30;1561.60;;;;;;5074532;28;20095;-66
2022/03/21 04:28:10;;;;;;;32.88;21.67;;;128.40;1561.60;;;;;;5074626;28;20534;-66
2022/03/21 04:30:37;;;;;;;37.40;24.80;;;128.40;1561.60;;;;;;5074438;28;20063;-66
2022/03/21 04:33:09;;;;;;;32.70;21.55;;;128.50;1536.00;;;;;;5074320;28;20024;-66
2022/03/21 04:35:36;;;;;;;35.10;23.73;;;128.40;1945.60;;;;;;5074361;28;20110;-66
2022/03/21 04:38:02;;;;;;;40.03;24.00;;;128.50;1536.00;;;;;;5074253;28;20029;-66
2022/03/21 04:40:28;;;;;;;38.85;24.40;;;128.10;1587.20;;;;;;5074223;28;20028;-66
2022/03/21 04:42:54;;;;;;;38.85;25.55;;;128.10;1587.20;;;;;;5074288;28;20031;-66
2022/03/21 04:45:20;;;;;;;41.38;25.90;;;128.30;1587.20;;;;;;5074357;28;20106;-66
2022/03/21 04:47:46;;;;;;;45.35;26.58;;;;;;;;;;5073951;28;20517;-65
2022/03/21 04:50:13;;;;;;;40.22;26.48;;;;;;;;;;5073805;28;20483;-66
2022/03/21 04:52:39;;;;;;;39.75;25.65;;;;;;;;;;5074110;28;20120;-65
2022/03/21 04:55:07;;;;;;;39.88;25.27;;;;;;;;;;5074027;28;20028;-65
2022/03/21 04:57:34;;;;;;;40.15;24.77;;;;;;;;;;5073899;28;20021;-65
2022/03/21 05:00:00;;;;;;;42.60;25.60;;;128.10;1587.20;;;;;;5073946;28;20095;-65
2022/03/21 05:02:25;;;;;;;33.53;22.02;;;128.10;1715.20;;;;;;5074324;28;20020;-66
2022/03/21 05:04:51;;;;;;;30.60;19.38;;;128.50;2252.80;;;;;;5074017;28;20025;-66
2022/03/21 05:07:17;;;;;;;28.80;20.13;;;128.50;1561.60;;;;;;5073660;28;20390;-66
2022/03/21 05:09:44;;;;;;;34.25;21.70;;;;;;;;;;5073309;28;20027;-66
2022/03/21 05:12:10;;;;;;;30.38;20.88;;;;;;;;;;5073649;28;20043;-66
2022/03/21 05:14:37;;;;;;;35.67;23.40;;;;;;;;;;5073528;28;20479;-72
2022/03/21 05:17:05;;;;;;;46.95;25.17;;;;;;;;;;5073413;28;20036;-72
2022/03/21 05:19:34;;;;;;;41.08;27.75;;;;;;;;;;5073662;28;20021;-77
2022/03/21 05:22:01;;;;;;;47.50;31.33;;;;;;;;;;5073579;28;20031;-77
2022/03/21 05:32:41;;;;;;;53.35;34.03;;;;;;;;;;5053840;28;20059;-71
2022/03/21 05:37:52;;;;;;;71.72;44.45;;;;;;;;;;5073430;28;20403;-67
2022/03/21 05:40:34;;;;;;;55.05;33.42;;;;;;;;;;5072828;28;20017;-73
2022/03/21 05:43:01;;;;;;;51.30;31.58;;;;;;;;;;5057670;28;20056;-67
2022/03/21 05:45:28;;;;;;;56.92;34.67;;;;;;;;;;5072638;28;20025;-68
2022/03/21 05:50:39;;;;;;;61.38;35.50;;;;;;;;;;5072373;28;20081;-68
2022/03/21 05:53:08;;;;;;;60.78;35.30;;;;;;;;;;5072354;28;20024;-67
2022/03/21 05:55:34;;;;;;;56.92;36.75;;;;;;;;;;5072304;28;20036;-69
2022/03/21 05:58:00;;;;;;;60.50;39.88;;;;;;;;;;5072201;28;20025;-67
2022/03/21 06:00:27;;;;;;;59.65;36.35;;;;;;;;;;5072617;28;20024;-70
2022/03/21 06:02:54;;;;;;;67.72;41.63;;;;;;;;;;5072204;28;20486;-73
2022/03/21 06:05:20;;;;;;;53.33;37.00;;;;;;;;;;5072449;28;20025;-67
2022/03/21 06:07:47;;;;;;;62.60;33.55;;;;;;;;;;5072816;28;20032;-68
2022/03/21 06:10:14;;;;;;;50.60;31.05;;;;;;;;;;5072739;28;20040;-68
2022/03/21 06:12:42;;;;;;;47.75;30.90;;;;;;;;;;5072742;28;20028;-67
2022/03/21 06:15:09;;;;;;;59.42;33.55;;;;;;;;;;5072785;28;20024;-71
2022/03/21 06:17:39;;;;;;;56.03;33.92;;;;;;;;;;5054053;28;20044;-67
2022/03/21 06:20:07;;;;;;;65.47;35.83;;;;;;;;;;5072562;28;20085;-69
2022/03/21 06:22:33;;;;;;;54.50;33.45;;;;;;;;;;5074344;28;20035;-67
2022/03/21 06:24:59;;;;;;;42.42;28.23;;;;;;;;;;5075640;28;20024;-69
2022/03/21 06:27:25;;;;;;;52.05;31.60;;;153.70;1536.00;;;;;;5075667;28;20024;-67
2022/03/21 06:29:51;;;;;;;37.55;24.42;;;153.80;1536.00;;;;;;5075938;28;20028;-68
2022/03/21 06:32:17;;;;;;;36.53;24.60;;;;;;;;;;5076186;28;20032;-67
2022/03/21 06:34:43;;;;;;;44.90;27.40;;;;;;;;;;5076296;28;20032;-68
2022/03/21 06:37:10;;;;;;;50.35;29.17;;;;;;;;;;5076731;28;20024;-68
2022/03/21 06:39:36;;;;;;;52.20;33.78;;;;;;;;;;5076578;28;20433;-69
2022/03/21 06:42:02;;;;;;;85.70;49.03;;;;;;;;;;5076418;28;20028;-68
2022/03/21 06:44:28;;;;;;;102.68;77.45;;;;;;;;;;5076297;28;20040;-68
2022/03/21 06:46:56;;;;;;;94.88;66.30;;;;;;;;;;5076339;28;20107;-68
2022/03/21 06:49:29;;;;;;;70.25;42.15;;;;;;;;;;5076234;28;20070;-68
2022/03/21 06:51:56;;;;;;;68.82;34.08;;;;;;;;;;5076130;28;20033;-68
2022/03/21 06:54:22;;;;;;;53.40;30.77;;;;;;;;;;5076210;28;20021;-68
2022/03/21 06:56:48;;;;;;;56.45;32.28;;;;;;;;;;5076126;28;20020;-68
2022/03/21 06:59:14;;;;;;;50.97;32.17;;;;;;;;;;5076224;28;20051;-69
2022/03/21 07:01:40;;;;;;;54.97;32.05;;;;;;;;;;5076124;28;20031;-68
2022/03/21 07:04:06;;;;;;;48.22;34.33;;;;;;;;;;5075723;28;20031;-68
2022/03/21 07:06:32;;;;;;;53.05;34.85;;;;;;;;;;5075862;28;20089;-69
2022/03/21 07:08:58;;;;;;;85.93;44.45;;;;;;;;;;5075989;28;20021;-68
2022/03/21 07:11:25;;;;;;;72.45;48.00;;;;;;;;;;5075729;28;20028;-68
2022/03/21 07:13:51;;;;;;;80.40;47.33;;;;;;;;;;5075877;28;20421;-68
2022/03/21 07:16:17;;;;;;;67.55;42.40;;;;;;;;;;5075638;28;20421;-69
2022/03/21 07:18:44;;;;;;;60.40;39.03;;;;;;;;;;5075246;28;20082;-68
2022/03/21 07:21:11;;;;;;;63.03;42.75;;;;;;;;;;5075723;28;20036;-68
2022/03/21 07:23:37;;;;;;;70.43;46.63;;;;;;;;;;5075894;28;20474;-68
2022/03/21 07:26:04;;;;;;;73.75;48.45;;;;;;;;;;5075480;28;20056;-68
2022/03/21 07:28:30;;;;;;;60.58;41.78;;;;;;;;;;5075482;28;20441;-68
2022/03/21 07:30:57;;;;;;;58.90;41.08;;;;;;;;;;5075523;28;20040;-68
2022/03/21 07:33:24;;;;;;;78.63;57.38;;;;;;;;;;5075151;28;20428;-68
2022/03/21 07:35:50;;;;;;;71.20;47.60;;;;;;;;;;5075280;28;20089;-68
2022/03/21 07:38:18;;;;;;;61.78;40.95;;;;;;;;;;5075259;28;20021;-68
2022/03/21 07:40:46;;;;;;;51.05;35.08;;;;;;;;;;5075276;28;20455;-67
2022/03/21 07:43:13;;;;;;;51.40;32.65;;;;;;;;;;5075378;28;20028;-67
2022/03/21 07:48:25;;;;;;;46.30;30.92;;;;;;;;;;5075245;28;20079;-68
2022/03/21 07:50:52;;;;;;;47.35;33.60;;;;;;;;;;5075013;28;20020;-68
2022/03/21 07:53:18;;;;;;;51.33;31.55;;;;;;;;;;5057096;28;20037;-68
2022/03/21 07:55:44;;;;;;;41.35;28.40;;;;;;;;;;5074955;28;20027;-68
2022/03/21 07:58:10;;;;;;;33.05;23.75;;;;;;;;;;5075115;28;20024;-68
2022/03/21 08:00:36;;;;;;;35.33;27.08;;;;;;;;;;5075130;28;20032;-68
2022/03/21 08:03:03;;;;;;;37.95;27.98;;;;;;;;;;5074779;28;20094;-68
2022/03/21 08:05:29;;;;;;;41.53;25.17;;;;;;;;;;5074800;28;20036;-67
2022/03/21 08:07:55;;;;;;;35.72;25.70;;;;;;;;;;5075012;28;20361;-68
2022/03/21 08:10:22;;;;;;;39.83;27.48;;;;;;;;;;5074738;28;20025;-68
2022/03/21 08:12:49;;;;;;;57.22;35.03;;;;;;;;;;5074729;28;20472;-67
2022/03/21 08:15:17;;;;;;;38.25;27.08;;;;;;;;;;5075008;28;20481;-68
2022/03/21 08:18:01;;;;;;;37.85;26.80;;;;;;;;;;5074543;28;20525;-68
2022/03/21 08:20:33;;;;;;;40.95;28.38;;;;;;;;;;5074773;28;20447;-68
2022/03/21 08:22:59;;;;;;;46.30;27.45;;;;;;;;;;5056496;28;20479;-68
2022/03/21 08:25:26;;;;;;;37.25;26.40;;;;;;;;;;5074356;28;20041;-68
2022/03/21 08:27:52;;;;;;;48.60;28.42;;;;;;;;;;5074287;28;20031;-68
2022/03/21 08:30:18;;;;;;;40.53;30.33;;;;;;;;;;5074144;28;20012;-68
2022/03/21 08:32:45;;;;;;;46.08;31.83;;;;;;;;;;5074335;28;20061;-68
2022/03/21 08:35:11;;;;;;;38.65;28.25;;;;;;;;;;5074348;28;20036;-68
2022/03/21 08:37:37;;;;;;;38.28;28.45;;;;;;;;;;5074098;28;20491;-68
2022/03/21 08:40:04;;;;;;;48.60;31.23;;;;;;;;;;5074111;28;20031;-68
2022/03/21 08:42:30;;;;;;;45.05;29.55;;;;;;;;;;5074117;28;20024;-68
2022/03/21 08:44:56;;;;;;;44.88;27.70;;;;;;;;;;5073069;28;20032;-68
2022/03/21 08:47:23;;;;;;;62.08;36.70;;;;;;;;;;5074091;28;20025;-68
2022/03/21 08:49:49;;;;;;;36.85;28.27;;;;;;;;;;5073878;28;20343;-68
2022/03/21 08:52:15;;;;;;;87.68;37.42;;;;;;;;;;5073871;28;20102;-68
2022/03/21 08:54:41;;;;;;;67.22;37.17;;;;;;;;;;5074054;28;20048;-68
2022/03/21 08:57:07;;;;;;;82.32;50.53;;;;;;;;;;5073768;28;20107;-68
2022/03/21 08:59:34;;;;;;;46.35;35.55;;;;;;;;;;5055393;28;20033;-68
2022/03/21 09:02:00;;;;;;;185.70;121.82;;;;;;;;;;5073797;28;20033;-68
2022/03/21 09:04:26;;;;;;;45.42;32.15;;;359.00;998.40;;;;;;5073723;28;20027;-67
2022/03/21 09:06:51;;;;;;;39.05;27.48;;;359.10;998.40;;;;;;5073734;28;20028;-67
2022/03/21 09:09:18;;;;;;;39.05;27.35;;;;;;;;;;5073556;28;20471;-67
2022/03/21 09:11:44;;;;;;;38.70;26.70;;;;;;;;;;5073567;28;20028;-67
2022/03/21 09:14:12;;;;;;;45.08;26.38;;;;;;;;;;5073671;28;20465;-67
2022/03/21 09:16:39;;;;;;;32.15;23.10;;;;;;;;;;5073764;28;20047;-68
2022/03/21 09:19:05;;;;;;;46.63;24.00;;;;;;;;;;5073158;28;20047;-67
2022/03/21 09:21:31;;;;;;;65.32;25.90;;;;;;;;;;5073340;28;20079;-68
2022/03/21 09:23:57;;;;;;;43.65;26.00;;;;;;;;;;5073280;28;20083;-68
2022/03/21 09:26:23;;;;;;;39.78;25.92;;;;;;;;;;5073061;28;20044;-68
2022/03/21 09:28:59;;;;;;;38.45;28.70;;;;;;;;;;5073148;28;20356;-69
2022/03/21 09:31:26;;;;;;;40.90;21.33;;;410.10;921.60;;;;;;5073310;28;20032;-67
2022/03/21 09:33:52;;;;;;;42.40;26.42;;;;;;;;;;5073148;28;20056;-67
2022/03/21 09:36:18;;;;;;;34.25;25.30;;;;;;;;;;5073067;28;20040;-68
2022/03/21 09:38:44;;;;;;;35.90;26.95;;;;;;;;;;5072956;28;20493;-68
2022/03/21 09:41:22;;;;;;;28.73;23.20;;;;;;;;;;5073038;28;20028;-68
2022/03/21 09:43:49;;;;;;;34.47;21.00;;;;;;;;;;5072802;28;20016;-68
2022/03/21 09:46:17;;;;;;;30.15;18.42;;;;;;;;;;5072698;28;20057;-70
2022/03/21 09:48:47;;;;;;;26.48;18.95;;;;;;;;;;5073167;28;20390;-69
2022/03/21 09:51:13;;;;;;;29.98;18.80;;;;;;;;;;5072893;28;20028;-68
2022/03/21 09:53:39;;;;;;;24.20;19.77;;;717.40;588.80;;;;;;5072615;28;20455;-68
2022/03/21 09:56:08;;;;;;;17.65;15.30;;;;;;;;;;5072745;28;20082;-68
2022/03/21 09:58:34;;;;;;;17.85;13.05;;;;;;;;;;5054612;28;20023;-67
2022/03/21 10:01:00;;;;;;;25.92;13.57;;;;;;;;;;5072771;28;20078;-68
2022/03/21 10:03:26;;;;;;;20.73;13.57;;;768.10;512.00;;;;;;5072536;28;20025;-68
2022/03/21 10:05:52;;;;;;;17.45;11.80;;;;;;;;;;5072708;28;20025;-69
2022/03/21 10:08:18;;;;;;;20.17;15.77;;;;;;;;;;5072752;28;20025;-68
2022/03/21 10:11:04;;;;;;;23.50;15.85;;;;;;;;;;5072692;28;20052;-68
2022/03/21 10:13:32;;;;;;;15.40;10.65;;;794.50;512.00;;;;;;5072615;28;20063;-68
2022/03/21 10:16:15;;;;;;;22.27;14.18;;;794.50;512.00;;;;;;5072846;28;20181;-69
2022/03/21 10:18:53;;;;;;;33.50;29.98;;;820.10;486.40;;;;;;5072945;28;20028;-68
2022/03/21 10:21:20;;;;;;;17.83;15.60;;;;;;;;;;5072647;28;20024;-68
2022/03/21 10:23:57;;;;;;;17.35;15.57;;;;;;;;;;5072471;28;20542;-71
2022/03/21 10:26:28;;;;;;;16.77;14.98;;;;;;;;;;5072497;28;20048;-70
2022/03/21 10:28:55;;;;;;;21.58;16.77;;;;;;;;;;5072428;28;20109;-69
2022/03/21 10:31:35;;;;;;;23.40;19.10;;;;;;;;;;5072774;28;20044;-70
2022/03/21 10:34:02;;;;;;;17.63;15.93;;;;;;;;;;5072389;28;20023;-69
2022/03/21 10:36:28;;;;;;;15.65;14.15;;;;;;;;;;5072327;28;20059;-69
2022/03/21 10:39:06;;;;;;;22.38;17.25;;;845.70;460.80;;;;;;5072475;28;20115;-71
2022/03/21 10:41:39;;;;;;;16.23;14.45;;;845.40;486.40;;;;;;5072549;28;20386;-69
2022/03/21 10:44:07;;;;;;;18.40;14.60;;;870.50;486.40;;;;;;5072153;28;20112;-69
2022/03/21 10:46:34;;;;;;;16.85;14.25;;;870.70;460.80;;;;;;5071889;28;20025;-70
2022/03/21 10:49:08;;;;;;;18.60;14.18;;;;;;;;;;5072133;28;20040;-69
2022/03/21 10:51:50;;;;;;;15.02;13.50;;;896.10;435.20;;;;;;5072245;28;20041;-71
2022/03/21 10:54:55;;;;;;;25.30;18.48;;;896.20;435.20;;;;;;5072143;28;20483;-69
2022/03/21 10:57:39;;;;;;;17.95;16.15;;;871.20;435.20;;;;;;5072130;28;20032;-68
2022/03/21 11:00:20;;;;;;;24.55;17.83;;;;;;;;;;5072276;28;20032;-68
2022/03/21 11:02:54;;;;;;;;;;;922.10;409.60;;;;;;5072428;28;20537;-69
2022/03/21 11:05:22;;;;;;;19.23;16.92;;;921.80;409.60;;;;;;5072705;28;20380;-70
2022/03/21 11:07:48;;;;;;;23.60;15.43;;;896.00;409.60;;;;;;5072565;28;20479;-69
2022/03/21 11:10:15;;;;;;;17.60;15.13;;;871.30;409.60;;;;;;5076145;28;20188;-69
2022/03/21 11:12:42;;;;;;;17.10;15.35;;;;;;;;;;5075753;28;20090;-68
2022/03/21 11:15:09;;;;;;;19.80;15.18;;;;;;;;;;5075745;28;20025;-70
2022/03/21 11:17:36;;;;;;;19.65;17.13;;;;;;;;;;5075863;28;20111;-68
2022/03/21 11:20:03;;;;;;;25.48;22.73;;;;;;;;;;5075735;28;20033;-68
2022/03/21 11:22:29;;;;;;;19.17;16.38;;;;;;;;;;5075710;28;20383;-68
2022/03/21 11:25:01;;;;;;;22.20;15.23;;;;;;;;;;5075380;28;20031;-69
2022/03/21 11:27:48;;;;;;;19.15;16.58;;;819.80;460.80;;;;;;5075521;28;20548;-68
2022/03/21 11:30:22;;;;;;;22.65;15.27;;;;;;;;;;5075641;28;20029;-69
2022/03/21 11:32:54;;;;;;;17.00;14.77;;;;;;;;;;5075561;28;20033;-69
2022/03/21 11:35:28;;;;;;;26.98;18.52;;;794.20;512.00;;;;;;5075548;28;20032;-69
2022/03/21 11:37:55;;;;;;;20.88;17.40;;;;;;;;;;5075518;28;20390;-70
2022/03/21 11:40:30;;;;;;;19.27;16.00;;;;;;;;;;5075496;28;20112;-68
2022/03/21 11:43:25;;;;;;;18.70;16.45;;;;;;;;;;5057311;28;20386;-68
2022/03/21 11:45:54;;;;;;;23.55;19.20;;;;;;;;;;5075558;28;20032;-69
2022/03/21 11:48:23;;;;;;;27.95;18.95;;;742.80;537.60;;;;;;5057023;28;20035;-69
2022/03/21 11:50:50;;;;;;;20.85;18.05;;;;;;;;;;5074838;28;20020;-68
2022/03/21 11:53:17;;;;;;;19.70;15.52;;;;;;;;;;5074831;28;20382;-68
2022/03/21 11:55:47;;;;;;;21.70;16.33;;;;;;;;;;5074926;28;20017;-69
2022/03/21 11:58:33;;;;;;;26.65;15.98;;;;;;;;;;5074621;28;20035;-69
2022/03/21 12:01:13;;;;;;;26.30;16.30;;;691.40;537.60;;;;;;5061189;28;20040;-70
2022/03/21 12:03:41;;;;;;;17.63;13.55;;;;;;;;;;5074779;28;20028;-68
2022/03/21 12:06:32;;;;;;;21.90;17.08;;;666.00;563.20;;;;;;5074810;28;20105;-68
2022/03/21 12:09:01;;;;;;;18.65;15.35;;;;;;;;;;5074628;28;20130;-68
2022/03/21 12:11:39;;;;;;;17.65;13.40;;;;;;;;;;5075046;28;20108;-68
2022/03/21 12:14:25;;;;;;;22.08;13.55;;;;;;;;;;5074336;28;20029;-69
2022/03/21 12:17:06;;;;;;;19.90;14.15;;;;;;;;;;5075128;28;20024;-68
2022/03/21 12:19:47;;;;;;;19.40;13.98;;;;;;;;;;5073275;28;20558;-71
2022/03/21 12:24:55;;;;;;;23.98;15.45;;;;;;;;;;5074697;28;20039;-68
2022/03/21 12:27:40;;;;;;;29.63;14.77;;;;;;;;;;5074243;28;20025;-68
2022/03/21 12:32:54;;;;;;;16.27;13.13;;;;;;;;;;5074373;28;20044;-68
2022/03/21 12:35:34;;;;;;;16.55;13.68;;;;;;;;;;5074287;28;20036;-69
2022/03/21 12:38:11;;;;;;;16.70;13.10;;;;;;;;;;5073854;28;20498;-68
2022/03/21 12:40:40;;;;;;;17.38;13.57;;;;;;;;;;5074252;28;20024;-68
2022/03/21 12:43:06;;;;;;;24.58;22.10;;;;;;;;;;5074221;28;20028;-69
2022/03/21 12:45:32;;;;;;;27.77;19.17;;;;;;;;;;5074369;28;20028;-69
2022/03/21 12:48:05;;;;;;;21.20;15.88;;;;;;;;;;5074114;28;20025;-69
2022/03/21 12:50:32;;;;;;;21.35;14.57;;;;;;;;;;5073743;28;20387;-69
2022/03/21 12:52:59;;;;;;;20.98;15.05;;;;;;;;;;5074333;28;20028;-68
2022/03/21 12:55:26;;;;;;;27.00;18.65;;;;;;;;;;5073803;28;20027;-70
2022/03/21 12:58:00;;;;;;;21.58;16.38;;;614.40;588.80;;;;;;5073921;28;20021;-68
2022/03/21 13:00:27;;;;;;;23.02;13.48;;;;;;;;;;5073675;28;20017;-68
2022/03/21 13:02:57;;;;;;;25.00;17.67;;;;;;;;;;5073730;28;20038;-68
2022/03/21 13:10:55;;;;;;;28.08;18.48;;;;;;;;;;5073785;28;20522;-68
2022/03/21 13:13:24;;;;;;;27.10;15.75;;;;;;;;;;5073522;28;20099;-68
2022/03/21 13:16:10;;;;;;;25.60;14.95;;;;;;;;;;5073671;28;20068;-69
2022/03/21 13:18:37;;;;;;;28.92;18.90;;;;;;;;;;5073455;28;20103;-69
2022/03/21 13:21:04;;;;;;;22.40;15.40;;;;;;;;;;5073387;28;20136;-69
2022/03/21 13:23:30;;;;;;;31.85;18.88;;;;;;;;;;5055487;28;20040;-70
2022/03/21 13:26:07;;;;;;;18.77;15.50;;;;;;;;;;5073172;28;20522;-70
2022/03/21 13:28:34;;;;;;;18.35;14.13;;;;;;;;;;5072863;28;20021;-68
2022/03/21 13:31:00;;;;;;;18.52;14.77;;;;;;;;;;5073028;28;20497;-68
2022/03/21 13:33:28;;;;;;;18.38;12.88;;;;;;;;;;5073249;28;20056;-68
2022/03/21 13:35:55;;;;;;;21.95;14.90;;;;;;;;;;5073225;28;20021;-68
2022/03/21 13:38:24;;;;;;;38.50;19.75;;;;;;;;;;5073002;28;20396;-69
2022/03/21 13:40:51;;;;;;;30.63;19.98;;;;;;;;;;5073120;28;20064;-69
2022/03/21 13:43:19;;;;;;;32.95;20.48;;;;;;;;;;5072900;28;20086;-69
2022/03/21 13:45:46;;;;;;;27.85;17.95;;;;;;;;;;5072870;28;20032;-68
2022/03/21 13:48:19;;;;;;;30.02;18.85;;;;;;;;;;5072993;28;20020;-70
2022/03/21 13:50:46;;;;;;;24.75;16.52;;;;;;;;;;5072938;28;20107;-70
2022/03/21 13:53:27;;;;;;;27.70;19.00;;;;;;;;;;5072946;28;20029;-69
2022/03/21 13:55:53;;;;;;;31.48;21.17;;;;;;;;;;5073052;28;20099;-68
2022/03/21 13:58:27;;;;;;;33.58;22.10;;;;;;;;;;5072739;28;20052;-68
2022/03/21 14:00:53;;;;;;;22.60;17.83;;;;;;;;;;5072602;28;20078;-69
2022/03/21 14:03:39;;;;;;;33.63;20.50;;;;;;;;;;5072709;28;20130;-69
2022/03/21 14:06:06;;;;;;;25.55;18.38;;;;;;;;;;5072260;28;20098;-68
2022/03/21 14:08:33;;;;;;;25.23;16.92;;;;;;;;;;5072426;28;20024;-68
2022/03/21 14:11:08;;;;;;;30.35;18.17;;;;;;;;;;5072581;28;20037;-68
2022/03/21 14:13:39;;;;;;;26.23;16.25;;;;;;;;;;5072517;28;20048;-67
2022/03/21 14:16:06;;;;;;;39.45;24.30;;;;;;;;;;5072298;28;20482;-68
2022/03/21 14:18:37;;;;;;;35.75;21.63;;;486.90;691.20;;;;;;5072519;28;20024;-68
2022/03/21 14:21:04;;;;;;;43.20;24.17;;;486.90;691.20;;;;;;5072454;28;20454;-68